Estación de San Pedro
Ultimos registro cada 15 minutos 63
| N° | Estación | Fecha / Hora | Temperatura | Humedad | Lluvia | Velocidad | Dirección | Radiación | Presion |
| 63 | San Pedro | 10-05-2026 15:30 | 28,2 | 31,3 | 0 | 0 | 59 | 406,9 | 995 |
| 62 | San Pedro | 10-05-2026 15:15 | 27,7 | 29,8 | 0 | 0 | 284 | 446,9 | 995,3 |
| 61 | San Pedro | 10-05-2026 15:00 | 27,7 | 28 | 0 | 0 | 310 | 476,9 | 995,3 |
| 60 | San Pedro | 10-05-2026 14:45 | 27,2 | 30,7 | 0 | 0 | 253 | 508,1 | 995,4 |
| 59 | San Pedro | 10-05-2026 14:30 | 26,3 | 31,8 | 0 | 0 | 299 | 530,6 | 995,6 |
| 58 | San Pedro | 10-05-2026 14:15 | 26 | 31,3 | 0 | 0,5 | 275 | 556,9 | 995,8 |
| 57 | San Pedro | 10-05-2026 14:00 | 26,1 | 33,5 | 0 | 0 | 275 | 576,9 | 995,8 |
| 56 | San Pedro | 10-05-2026 13:45 | 24,8 | 35,6 | 0 | 0 | 314 | 594,4 | 995,9 |
| 55 | San Pedro | 10-05-2026 13:30 | 24,9 | 37,2 | 0 | 0 | 299 | 608,1 | 996,2 |
| 54 | San Pedro | 10-05-2026 13:15 | 23,4 | 38,5 | 0 | 0,5 | 278 | 619,4 | 996,4 |
| 53 | San Pedro | 10-05-2026 13:00 | 23,2 | 37,8 | 0 | 0 | 271 | 621,9 | 996,7 |
| 52 | San Pedro | 10-05-2026 12:45 | 21,4 | 43,4 | 0 | 0 | 281 | 624,4 | 996,8 |
| 51 | San Pedro | 10-05-2026 12:30 | 22,1 | 43,7 | 0 | 0 | 29 | 623,1 | 996,9 |
| 50 | San Pedro | 10-05-2026 12:15 | 20,5 | 47 | 0 | 0 | 271 | 619,4 | 997,1 |
| 49 | San Pedro | 10-05-2026 12:00 | 19,4 | 46,9 | 0 | 0 | 261 | 610,6 | 997,3 |
| 48 | San Pedro | 10-05-2026 11:45 | 19,3 | 51,1 | 0 | 0 | 337 | 599,4 | 997,3 |
| 47 | San Pedro | 10-05-2026 11:30 | 17,9 | 55 | 0 | 0 | 206 | 583,1 | 997,7 |
| 46 | San Pedro | 10-05-2026 11:15 | 17,8 | 55,3 | 0 | 0 | 338 | 563,1 | 997,8 |
| 45 | San Pedro | 10-05-2026 11:00 | 16,6 | 59,3 | 0 | 0 | 260 | 540,6 | 997,9 |
| 44 | San Pedro | 10-05-2026 10:45 | 15,5 | 63,5 | 0 | 0 | 282 | 513,1 | 998 |
| 43 | San Pedro | 10-05-2026 10:30 | 14,8 | 68,8 | 0 | 0 | 251 | 483,1 | 997,8 |
| 42 | San Pedro | 10-05-2026 10:15 | 13,9 | 72,6 | 0 | 0 | 330 | 450,6 | 997,9 |
| 41 | San Pedro | 10-05-2026 10:00 | 12,9 | 74,3 | 0 | 0 | 0 | 416,9 | 998,1 |
| 40 | San Pedro | 10-05-2026 09:45 | 11,6 | 85,7 | 0 | 0 | 0 | 378,1 | 998,3 |
| 39 | San Pedro | 10-05-2026 09:30 | 9,8 | 93,6 | 0 | 0 | 7 | 339,4 | 998,2 |
| 38 | San Pedro | 10-05-2026 09:15 | 6,8 | 100 | 0 | 0 | 94 | 296,9 | 998,4 |
| 37 | San Pedro | 10-05-2026 09:00 | 5,1 | 100 | 0 | 0 | 128 | 245,6 | 998,4 |
| 36 | San Pedro | 10-05-2026 08:45 | 4,7 | 100 | 0 | 0 | 145 | 173,1 | 998,4 |
| 35 | San Pedro | 10-05-2026 08:30 | 3 | 100 | 0 | 0 | 145 | 136,9 | 998,5 |
| 34 | San Pedro | 10-05-2026 08:15 | 1,5 | 100 | 0 | 0 | 145 | 69,4 | 998,3 |
| 33 | San Pedro | 10-05-2026 08:00 | 0,9 | 100 | 0 | 0 | 145 | 41,9 | 998,4 |
| 32 | San Pedro | 10-05-2026 07:45 | 0,8 | 100 | 0 | 0 | 73 | 9,4 | 998,4 |
| 31 | San Pedro | 10-05-2026 07:30 | 0,7 | 99,9 | 0 | 0 | 67 | 3,1 | 998,4 |
| 30 | San Pedro | 10-05-2026 07:15 | 0,9 | 100 | 0 | 0 | 67 | 0,6 | 998,3 |
| 29 | San Pedro | 10-05-2026 07:00 | 0,7 | 99,9 | 0 | 0 | 94 | 0,6 | 998,3 |
| 28 | San Pedro | 10-05-2026 06:45 | 0,9 | 100 | 0 | 0 | 95 | 0,6 | 998,3 |
| 27 | San Pedro | 10-05-2026 06:30 | 0,8 | 99,8 | 0 | 0 | 110 | 0,6 | 998,1 |
| 26 | San Pedro | 10-05-2026 06:15 | 1,2 | 100 | 0 | 0 | 147 | 0,6 | 998,1 |
| 25 | San Pedro | 10-05-2026 06:00 | 0,5 | 99,7 | 0 | 0 | 132 | 0,6 | 998,1 |
| 24 | San Pedro | 10-05-2026 05:45 | 1,7 | 99,8 | 0 | 0 | 95 | 0,6 | 997,9 |
| 23 | San Pedro | 10-05-2026 05:30 | 0,9 | 99,5 | 0 | 0 | 119 | 0,6 | 997,9 |
| 22 | San Pedro | 10-05-2026 05:15 | 0,9 | 99,4 | 0 | 0 | 119 | 0,6 | 998,1 |
| 21 | San Pedro | 10-05-2026 05:00 | 1,2 | 99,4 | 0 | 0 | 95 | 0,6 | 997,9 |
| 20 | San Pedro | 10-05-2026 04:45 | 1,3 | 99,5 | 0 | 0 | 95 | 0,6 | 997,9 |
| 19 | San Pedro | 10-05-2026 04:30 | 1,4 | 99,4 | 0 | 0 | 95 | 0,6 | 997,8 |
| 18 | San Pedro | 10-05-2026 04:15 | 1,2 | 99 | 0 | 0 | 105 | 0,6 | 997,9 |
| 17 | San Pedro | 10-05-2026 04:00 | 0,8 | 98,7 | 0 | 0 | 112 | 0,6 | 997,7 |
| 16 | San Pedro | 10-05-2026 03:45 | 1,2 | 98 | 0 | 0 | 97 | 0,6 | 998,1 |
| 15 | San Pedro | 10-05-2026 03:30 | 1,6 | 98 | 0 | 0 | 95 | 0,6 | 998,2 |
| 14 | San Pedro | 10-05-2026 03:15 | 1,6 | 97,7 | 0 | 0 | 95 | 0,6 | 998,4 |
| 13 | San Pedro | 10-05-2026 03:00 | 2 | 97,8 | 0 | 0 | 95 | 0,6 | 998,4 |
| 12 | San Pedro | 10-05-2026 02:45 | 2 | 98,3 | 0 | 0 | 111 | 0,6 | 998,4 |
| 11 | San Pedro | 10-05-2026 02:30 | 1,4 | 97,8 | 0 | 0 | 128 | 0,6 | 998,6 |
| 10 | San Pedro | 10-05-2026 02:15 | 2,7 | 97,5 | 0 | 0 | 95 | 0,6 | 998,6 |
| 9 | San Pedro | 10-05-2026 02:00 | 2,5 | 96,6 | 0 | 0 | 95 | 0,6 | 998,7 |
| 8 | San Pedro | 10-05-2026 01:45 | 3,3 | 97,9 | 0 | 0 | 95 | 0,6 | 998,7 |
| 7 | San Pedro | 10-05-2026 01:30 | 2,5 | 96,5 | 0 | 0 | 104 | 0,6 | 998,9 |
| 6 | San Pedro | 10-05-2026 01:15 | 3 | 97,9 | 0 | 0 | 136 | 0,6 | 998,8 |
| 5 | San Pedro | 10-05-2026 01:00 | 3,1 | 96,2 | 0 | 0 | 136 | 0,6 | 999 |
| 4 | San Pedro | 10-05-2026 00:45 | 3,2 | 95,8 | 0 | 0 | 132 | 0,6 | 998,9 |
| 3 | San Pedro | 10-05-2026 00:30 | 3,9 | 95,1 | 0 | 0 | 95 | 0,6 | 998,9 |
| 2 | San Pedro | 10-05-2026 00:15 | 4,4 | 95,9 | 0 | 0 | 95 | 0,6 | 999,1 |
| 1 | San Pedro | 10-05-2026 00:00 | 4,4 | 95,3 | 0 | 0 | 95 | 0,6 | 999 |